< Typhoon 197605 1976 Season Typhoon 197607 >
Typhoon 197606 (PAMELA)
General InformationTrack Information on Google Maps || Disaster Info.ResourceGoogle EarthGE AnimationAtom FeedGeoJSON
Detalied Best Track (Time Zone = UTC)
Year Month Day Hour Lat. Long. Pressure (hPa) Wind (kt) Class Image Chart
1976 5 14 06 8.1 152.1 1004 0 2 -- Chart
1976 5 14 12 8.5 152.2 1004 0 2 -- Chart
1976 5 14 18 8.4 151.7 1004 0 2 -- Chart
1976 5 15 00 8.3 151.5 1004 0 2 -- Chart
1976 5 15 06 8.1 151.1 998 0 9 -- Chart
1976 5 15 12 7.7 150.8 998 0 9 -- Chart
1976 5 15 18 7.2 151.2 998 0 9 -- Chart
1976 5 16 00 6.9 151.8 994 0 9 -- Chart
1976 5 16 06 6.7 152.4 992 0 9 -- Chart
1976 5 16 12 6.3 153.1 985 0 9 -- Chart
1976 5 16 18 6.4 153.5 980 0 9 -- Chart
1976 5 17 00 6.8 153.7 975 0 9 -- Chart
1976 5 17 06 7.1 153.5 975 0 9 -- Chart
1976 5 17 12 7.3 153.3 970 0 9 -- Chart
1976 5 17 18 7.8 153.1 965 0 9 -- Chart
1976 5 18 00 8.3 152.5 955 0 9 -- Chart
1976 5 18 06 8.8 151.8 950 0 9 -- Chart
1976 5 18 12 9.2 151.0 940 0 9 -- Chart
1976 5 18 18 9.5 150.2 940 0 9 -- Chart
1976 5 19 00 9.6 149.2 930 0 9 -- Chart
1976 5 19 06 9.9 148.1 925 0 9 -- Chart
1976 5 19 12 10.2 147.7 925 0 9 -- Chart
1976 5 19 18 10.7 147.1 920 0 9 -- Chart
1976 5 20 00 11.0 146.6 920 0 9 -- Chart
1976 5 20 06 11.2 146.2 920 0 9 -- Chart
1976 5 20 12 11.6 146.0 930 0 9 -- Chart
1976 5 20 18 12.2 145.7 930 0 9 -- Chart
1976 5 21 00 12.7 145.3 935 0 9 -- Chart
1976 5 21 06 13.5 144.9 935 0 9 -- Chart
1976 5 21 12 14.2 144.4 935 0 9 -- Chart
1976 5 21 18 14.8 144.0 935 0 9 -- Chart
1976 5 22 00 15.6 143.5 935 0 9 -- Chart
1976 5 22 06 16.6 142.7 935 0 9 -- Chart
1976 5 22 12 17.3 142.0 935 0 9 -- Chart
1976 5 22 18 18.2 141.3 935 0 9 -- Chart
1976 5 23 00 19.1 140.7 935 0 9 -- Chart
1976 5 23 06 20.0 140.2 935 0 9 -- Chart
1976 5 23 12 21.0 139.8 935 0 9 -- Chart
1976 5 23 18 21.6 139.8 945 0 9 -- Chart
1976 5 24 00 22.2 140.1 950 0 9 -- Chart
1976 5 24 06 23.0 140.5 955 0 9 -- Chart
1976 5 24 12 23.5 140.8 955 0 9 -- Chart
1976 5 24 18 24.3 141.1 960 0 9 -- Chart
1976 5 25 00 25.0 141.4 960 0 9 -- Chart
1976 5 25 06 26.0 142.0 960 0 9 -- Chart
1976 5 25 12 26.7 142.8 965 0 9 -- Chart
1976 5 25 18 27.3 144.0 970 0 9 -- Chart
1976 5 26 00 28.0 145.0 970 0 9 -- Chart
1976 5 26 06 29.0 146.4 970 0 9 -- Chart
1976 5 26 12 30.0 148.0 970 0 9 -- Chart
1976 5 26 18 31.2 149.2 970 0 9 -- Chart
1976 5 27 00 32.3 150.5 975 0 9 -- Chart
1976 5 27 06 33.6 151.8 975 0 9 -- Chart
1976 5 27 12 35.5 153.5 975 0 9 -- Chart
1976 5 27 18 37.0 155.0 975 0 9 -- Chart
1976 5 28 00 40.0 156.0 972 0 6 -- Chart
1976 5 28 06 41.9 157.3 972 0 6 -- Chart
1976 5 28 12 42.9 159.0 972 0 6 -- Chart
1976 5 28 18 44.3 160.0 976 0 6 -- Chart
1976 5 29 00 46.3 161.0 980 0 6 -- Chart
1976 5 29 06 48.0 161.4 980 0 6 -- Chart
1976 5 29 12 50.0 161.7 980 0 6 -- Chart
1976 5 29 18 51.2 161.8 980 0 6 -- Chart
1976 5 30 00 52.0 162.0 980 0 6 -- Chart
1976 5 30 06 53.0 163.0 980 0 6 -- Chart
1976 5 30 12 54.0 164.0 980 0 6 -- Chart
1976 5 30 18 55.0 165.0 986 0 6 -- Chart
1976 5 31 00 56.0 166.0 992 0 6 -- Chart
1976 5 31 06 56.5 167.1 994 0 6 -- Chart
1976 5 31 12 57.0 169.1 996 0 6 -- Chart
1976 5 31 18 57.5 171.5 996 0 6 -- Chart
1976 6 1 00 58.0 174.0 996 0 6 -- Chart
Japan Meteorological Agency Best Track Data | Correction Date : 1992-10-21
< Typhoon 197605 1976 Season Typhoon 197607 >

Help